WetterOnline ( https://www.wetteronline.de )

Wetter aktuell Rheinstetten

Aktuelles Wetter: Rheinstetten (116m)

6-stündlich | Neueste Meldungen
Ortszeit Temperatur Wetter
So, 02.10. 2:00 13.9° C bedeckt
Sa, 01.10. 20:00 13.6° C starker Regen
Sa, 01.10. 14:00 12.7° C Regen
Sa, 01.10. 8:00 10.9° C leichter Regen
Sa, 01.10. 2:00 9.4° C wolkig
Fr, 30.09. 20:00 11.1° C wolkenlos
Fr, 30.09. 14:00 14.9° C wolkig
Fr, 30.09. 8:00 8.3° C bewölkt
Ortszeit Temperatur Wetter
So, 02.10. 5:00 14.3° C bewölkt
So, 02.10. 4:50 14.3° C bewölkt
So, 02.10. 4:40 14.4° C bedeckt
So, 02.10. 4:30 14.2° C bewölkt
So, 02.10. 4:20 14.2° C bewölkt
So, 02.10. 4:10 14.3° C bedeckt
So, 02.10. 4:00 14.5° C wolkig
So, 02.10. 3:30 14.5° C wolkig
So, 02.10. 3:00 14.2° C wolkig
So, 02.10. 2:30 13.9° C bedeckt
So, 02.10. 2:00 13.9° C bedeckt
Ortszeit Relative Feuchte Sichtweite
So, 02.10. 2:00 88% 50 km
Sa, 01.10. 20:00 89% 3.4 km
Sa, 01.10. 14:00 84% >70 km
Sa, 01.10. 8:00 82% 30 km
Sa, 01.10. 2:00 89% 45 km
Fr, 30.09. 20:00 88% 40 km
Fr, 30.09. 14:00 67% 35 km
Fr, 30.09. 8:00 96% 6 km
Ortszeit Relative Feuchte Sichtweite
So, 02.10. 5:00 85% 45 km
So, 02.10. 4:50 85% -
So, 02.10. 4:40 84% -
So, 02.10. 4:30 85% 45 km
So, 02.10. 4:20 85% -
So, 02.10. 4:10 84% -
So, 02.10. 4:00 83% 45 km
So, 02.10. 3:30 83% 40 km
So, 02.10. 3:00 85% 50 km
So, 02.10. 2:30 88% 50 km
So, 02.10. 2:00 88% 50 km
Ortszeit Niederschlagsmenge Niederschlagsart
So, 02.10. 2:00 0.6 l/m2 in 6 Std. Regen
Sa, 01.10. 20:00 5 l/m2 in 12 Std. Regen
Sa, 01.10. 14:00 4 l/m2 in 6 Std. Regen
Sa, 01.10. 8:00 0.6 l/m2 in 12 Std. Regen
Sa, 01.10. 2:00 0.0 l/m2 in 6 Std. -
Fr, 30.09. 20:00 0.0 l/m2 in 12 Std. -
Fr, 30.09. 14:00 0.0 l/m2 in 6 Std. -
Fr, 30.09. 8:00 0.3 l/m2 in 12 Std. Regen
Ortszeit Niederschlagsmenge Niederschlagsart
So, 02.10. 5:00 0.0 l/m2 in 1 Std. -
So, 02.10. 4:50 keine Meldung -
So, 02.10. 4:40 keine Meldung -
So, 02.10. 4:30 0.0 l/m2 in 1 Std. -
So, 02.10. 4:20 keine Meldung -
So, 02.10. 4:10 keine Meldung -
So, 02.10. 4:00 0.0 l/m2 in 1 Std. -
So, 02.10. 3:30 0.0 l/m2 in 1 Std. -
So, 02.10. 3:00 0.0 l/m2 in 1 Std. -
So, 02.10. 2:30 0.0 l/m2 in 1 Std. -
So, 02.10. 2:00 <0.05 l/m2 in 1 Std. Regen
Ortszeit Stärke Spitze Richtung
km/h Bft. km/h Grad Sektor
So, 02.10. 2:00 14 3 32 230° SW
Sa, 01.10. 20:00 28 4 48 230° SW
Sa, 01.10. 14:00 32 5 50 230° SW
Sa, 01.10. 8:00 22 4 43 210° SW
Sa, 01.10. 2:00 11 2 18 210° SW
Fr, 30.09. 20:00 2 1 13 170° S
Fr, 30.09. 14:00 4 1 14 340° N
Fr, 30.09. 8:00 4 1 11 340° N
Ortszeit Stärke Spitze Richtung
km/h Bft. km/h Grad Sektor
So, 02.10. 5:00 11 2 22 240° SW
So, 02.10. 4:50 11 2 - 240° SW
So, 02.10. 4:40 11 2 - 240° SW
So, 02.10. 4:30 11 2 22 230° SW
So, 02.10. 4:20 11 2 - 230° SW
So, 02.10. 4:10 11 2 - 230° SW
So, 02.10. 4:00 14 3 25 220° SW
So, 02.10. 3:30 18 3 25 230° SW
So, 02.10. 3:00 15 3 26 230° SW
So, 02.10. 2:30 13 3 22 240° SW
So, 02.10. 2:00 14 3 25 230° SW
Ortszeit Untergrenze Bedeckung Gattung
total tief tief mittel hoch
So, 02.10. 2:00 720 m 8/8 8/8 - - -
Sa, 01.10. 20:00 840 m 7/8 7/8 - - -
Sa, 01.10. 14:00 630 m 7/8 7/8 - - -
Sa, 01.10. 8:00 2400 m 4/8 4/8 - - -
Sa, 01.10. 2:00 7800 m 8/8 0/8 - - -
Fr, 30.09. 20:00 - 0/8 0/8 - - -
Fr, 30.09. 14:00 2100 m 5/8 5/8 - - -
Fr, 30.09. 8:00 60 m 7/8 7/8 - - -
Ortszeit Bedeckungsgrad in Achtel und Wolkenuntergrenze
So, 02.10. 5:00 3(840m) 7(1320m) 7(2700m)
So, 02.10. 4:50 3(840m) 7(1320m) 7(2700m)
So, 02.10. 4:40 8
So, 02.10. 4:30 3(1290m) 7(1500m) 8(3000m)
So, 02.10. 4:20 3(1290m) 7(1500m) 8(3000m)
So, 02.10. 4:10 8
So, 02.10. 4:00 1(1020m) 7(3300m) 8(3900m)
So, 02.10. 3:30 2(2100m) 8(3900m) 8(5100m)
So, 02.10. 3:00 3(750m) 8(3000m) 8(4200m)
So, 02.10. 2:30 7(780m) 7(1500m) 8(2100m)
So, 02.10. 2:00 3(720m) 6(1500m) 8(1800m)
Ortszeit Luftdruck NN (hPa) Tendenz (hPa in 3 Std.)
So, 02.10. 2:00 1020 + 1,7
Sa, 01.10. 20:00 1015 + 2,3
Sa, 01.10. 14:00 1012 + 0,2
Sa, 01.10. 8:00 1011 - 1,6
Sa, 01.10. 2:00 1014 0,0
Fr, 30.09. 20:00 1013 + 0,7
Fr, 30.09. 14:00 1012 + 0,2
Fr, 30.09. 8:00 1011 + 1,2
Ortszeit Luftdruck NN (hPa) Tendenz (hPa in 3 Std.)
So, 02.10. 5:00 1020 + 0,6
So, 02.10. 4:50 1020 keine Meldung
So, 02.10. 4:40 1020 keine Meldung
So, 02.10. 4:30 1020 + 0,7
So, 02.10. 4:20 1020 keine Meldung
So, 02.10. 4:10 1020 keine Meldung
So, 02.10. 4:00 1020 + 0,9
So, 02.10. 3:30 1020 + 1,0
So, 02.10. 3:00 1020 + 1,6
So, 02.10. 2:30 1020 + 1,7
So, 02.10. 2:00 1020 + 1,7
Ortszeit Schneehöhe (cm)
So, 02.10. 2:00 0
Sa, 01.10. 20:00 0
Sa, 01.10. 14:00 0
Sa, 01.10. 8:00 0
Sa, 01.10. 2:00 0
Fr, 30.09. 20:00 0
Fr, 30.09. 14:00 0
Fr, 30.09. 8:00 0
Ortszeit Schneehöhe (cm)
So, 02.10. 5:00 0
So, 02.10. 4:50 0
So, 02.10. 4:40 0
So, 02.10. 4:30 0
So, 02.10. 4:20 0
So, 02.10. 4:10 0
So, 02.10. 4:00 0
So, 02.10. 3:30 0
So, 02.10. 3:00 0
So, 02.10. 2:30 0
So, 02.10. 2:00 0
Link zu dieser Seite / Seite empfehlen

Das Wetter in ...